Elizabeth Dewey — WDC6540 — position and weather

sailwx.info

Track history (hours):
 
Tides and Currents Weather Stations Pressure Air Temp Water Temp Dewpoint Dewpoint Depression Visibility Wind Speed Wind Dir Waves Ship Positions

Elizabeth Dewey

Owner: American Commercial Lines LLC, Jeffersonville, IN. More information available from US FCC via Universal Licensing System and Coast Guard Vessel Documentation Center.

Last reported at 2017-Nov-15 00:14 UTC. Time now 2017-Nov-22 16:37 UTC.
Position N 32°49' W 091°09'.

Length 48 m; draft 3.4 m.

Type: Towing. MMSI: 367057670.

Date/timePositionNaut miles runAvg speedWind from/ knotsBaromVisibWave heightAir tempDewpointWater temp
2017-Nov-15 00:14N 32°49' W 091°09'3 3.6
2017-Nov-14 23:28N 32°47' W 091°09'8 1.4
2017-Nov-14 17:27N 32°38' W 091°09'2 3.7
2017-Nov-14 17:00N 32°37' W 091°09'1 1.4
2017-Nov-14 16:30N 32°36' W 091°09'2 3.7
2017-Nov-14 16:00N 32°35' W 091°07'2 3.6
2017-Nov-14 15:30N 32°33' W 091°06'2 3.3
2017-Nov-14 15:00N 32°32' W 091°06'2 4.6
2017-Nov-14 14:30N 32°30' W 091°07'2 3.9
2017-Nov-14 14:00N 32°28' W 091°06'2 4.1
2017-Nov-14 13:30N 32°27' W 091°04'2 3.9
2017-Nov-14 13:00N 32°26' W 091°02'2 4.0
2017-Nov-14 12:30N 32°25' W 090°60'1 2.0
2017-Nov-14 12:00N 32°24' W 090°59'2 4.2
2017-Nov-14 11:30N 32°22' W 091°00'2 4.0
2017-Nov-14 11:00N 32°21' W 090°58'2 4.2
2017-Nov-14 10:30N 32°21' W 090°56'2 3.7
2017-Nov-14 10:00N 32°20' W 090°54'2 4.1
2017-Nov-14 09:30N 32°18' W 090°55'2 4.3
2017-Nov-14 09:00N 32°17' W 090°57'2 4.3
2017-Nov-14 08:30N 32°15' W 090°59'2 4.5
2017-Nov-14 08:00N 32°13' W 090°59'2 4.1
2017-Nov-14 07:30N 32°11' W 090°60'2 3.8
2017-Nov-14 07:00N 32°09' W 091°00'2 3.8
2017-Nov-14 06:30N 32°07' W 091°01'2 3.8
2017-Nov-14 05:58N 32°08' W 091°04'2 4.1
2017-Nov-14 05:30N 32°08' W 091°06'1 3.0
2017-Nov-14 05:00N 32°06' W 091°06'4 3.9
2017-Nov-14 03:58N 32°03' W 091°03'2 5.0
2017-Nov-14 03:29N 32°01' W 091°05'1 2.7
2017-Nov-14 02:58N 31°60' W 091°06'  
2017-Nov-09 14:33N 31°58' W 091°11'4 5.7
2017-Nov-09 13:48N 31°59' W 091°07'2 6.4
2017-Nov-09 13:30N 32°00' W 091°05'6 7.4
2017-Nov-09 12:43N 32°06' W 091°06'1 6.5
2017-Nov-09 12:30N 32°07' W 091°07'2 4.6
2017-Nov-09 12:00N 32°08' W 091°04'3 6.5
2017-Nov-09 11:30N 32°09' W 091°00'5 9.2
2017-Nov-09 11:00N 32°13' W 090°59'4 8.6
2017-Nov-09 10:30N 32°17' W 090°57'4 7.2
2017-Nov-09 10:00N 32°20' W 090°54'3 6.0
2017-Nov-09 09:30N 32°21' W 090°57'0 0.3
2017-Nov-09 09:00N 32°21' W 090°57'0 0.0
2017-Nov-09 08:30N 32°21' W 090°57'0 0.0
2017-Nov-09 08:00N 32°21' W 090°57'1 1.7
2017-Nov-09 07:30N 32°21' W 090°58'3 5.7
2017-Nov-09 07:00N 32°23' W 090°60'4 7.5
2017-Nov-09 06:30N 32°26' W 091°03'4 8.3
2017-Nov-09 06:00N 32°29' W 091°07'4 8.6
2017-Nov-09 05:29N 32°33' W 091°06'3 6.0
2017-Nov-09 05:00N 32°35' W 091°08'5 6.2
2017-Nov-09 04:14N 32°40' W 091°08'  
Track history (hours):
 
Tides and Currents Weather Stations Pressure Air Temp Water Temp Dewpoint Dewpoint Depression Visibility Wind Speed Wind Dir Waves Ship Positions

Elizabeth Dewey

Owner: American Commercial Lines LLC, Jeffersonville, IN. More information available from US FCC via Universal Licensing System and Coast Guard Vessel Documentation Center.

Last reported at 2017-Nov-15 00:14 UTC. Time now 2017-Nov-22 16:37 UTC.
Position N 32°49' W 091°09'.

Length 48 m; draft 3.4 m.

Type: Towing. MMSI: 367057670.

Date/timePositionNaut miles runAvg speedWind from/ knotsBaromVisibWave heightAir tempDewpointWater temp
2017-Nov-15 00:14N 32°49' W 091°09'3 3.6
2017-Nov-14 23:28N 32°47' W 091°09'8 1.4
2017-Nov-14 17:27N 32°38' W 091°09'2 3.7
2017-Nov-14 17:00N 32°37' W 091°09'1 1.4
2017-Nov-14 16:30N 32°36' W 091°09'2 3.7
2017-Nov-14 16:00N 32°35' W 091°07'2 3.6
2017-Nov-14 15:30N 32°33' W 091°06'2 3.3
2017-Nov-14 15:00N 32°32' W 091°06'2 4.6
2017-Nov-14 14:30N 32°30' W 091°07'2 3.9
2017-Nov-14 14:00N 32°28' W 091°06'2 4.1
2017-Nov-14 13:30N 32°27' W 091°04'2 3.9
2017-Nov-14 13:00N 32°26' W 091°02'2 4.0
2017-Nov-14 12:30N 32°25' W 090°60'1 2.0
2017-Nov-14 12:00N 32°24' W 090°59'2 4.2
2017-Nov-14 11:30N 32°22' W 091°00'2 4.0
2017-Nov-14 11:00N 32°21' W 090°58'2 4.2
2017-Nov-14 10:30N 32°21' W 090°56'2 3.7
2017-Nov-14 10:00N 32°20' W 090°54'2 4.1
2017-Nov-14 09:30N 32°18' W 090°55'2 4.3
2017-Nov-14 09:00N 32°17' W 090°57'2 4.3
2017-Nov-14 08:30N 32°15' W 090°59'2 4.5
2017-Nov-14 08:00N 32°13' W 090°59'2 4.1
2017-Nov-14 07:30N 32°11' W 090°60'2 3.8
2017-Nov-14 07:00N 32°09' W 091°00'2 3.8
2017-Nov-14 06:30N 32°07' W 091°01'2 3.8
2017-Nov-14 05:58N 32°08' W 091°04'2 4.1
2017-Nov-14 05:30N 32°08' W 091°06'1 3.0
2017-Nov-14 05:00N 32°06' W 091°06'4 3.9
2017-Nov-14 03:58N 32°03' W 091°03'2 5.0
2017-Nov-14 03:29N 32°01' W 091°05'1 2.7
2017-Nov-14 02:58N 31°60' W 091°06'  
2017-Nov-09 14:33N 31°58' W 091°11'4 5.7
2017-Nov-09 13:48N 31°59' W 091°07'2 6.4
2017-Nov-09 13:30N 32°00' W 091°05'6 7.4
2017-Nov-09 12:43N 32°06' W 091°06'1 6.5
2017-Nov-09 12:30N 32°07' W 091°07'2 4.6
2017-Nov-09 12:00N 32°08' W 091°04'3 6.5
2017-Nov-09 11:30N 32°09' W 091°00'5 9.2
2017-Nov-09 11:00N 32°13' W 090°59'4 8.6
2017-Nov-09 10:30N 32°17' W 090°57'4 7.2
2017-Nov-09 10:00N 32°20' W 090°54'3 6.0
2017-Nov-09 09:30N 32°21' W 090°57'0 0.3
2017-Nov-09 09:00N 32°21' W 090°57'0 0.0
2017-Nov-09 08:30N 32°21' W 090°57'0 0.0
2017-Nov-09 08:00N 32°21' W 090°57'1 1.7
2017-Nov-09 07:30N 32°21' W 090°58'3 5.7
2017-Nov-09 07:00N 32°23' W 090°60'4 7.5
2017-Nov-09 06:30N 32°26' W 091°03'4 8.3
2017-Nov-09 06:00N 32°29' W 091°07'4 8.6
2017-Nov-09 05:29N 32°33' W 091°06'3 6.0
2017-Nov-09 05:00N 32°35' W 091°08'5 6.2
2017-Nov-09 04:14N 32°40' W 091°08'  

Dump ship's entire track history